Jiyu — FAD2242 — position and weather

sailwx.info

Track history (hours):
 
Tides and Currents Weather Stations Pressure Air Temp Water Temp Dewpoint Dewpoint Depression Visibility Wind Speed Wind Dir Waves Ship Positions

Jiyu

Last reported at 2018-Apr-19 03:34 UTC. Time now 2018-Apr-21 02:18 UTC.
Position N 38°55' E 001°27'.

Length 8 m.

Type: Sailing vessel. MMSI: 227371690.

Date/timePositionNaut miles runAvg speedWind from/ knotsBaromVisibWave heightAir tempDewpointWater temp
2018-Apr-19 03:34N 38°55' E 001°27'0 0.4
2018-Apr-19 03:11N 38°55' E 001°27'1 6.0
2018-Apr-19 02:58N 38°54' E 001°27'  
2018-Apr-13 19:25N 37°59' W 009°26'30 8.6
2018-Apr-13 15:56N 38°29' W 009°23'4 9.1
2018-Apr-13 15:30N 38°33' W 009°23'7 8.5
2018-Apr-13 14:43N 38°40' W 009°24'1 2.8
2018-Apr-13 14:25N 38°41' W 009°25'1 0.7
2018-Apr-13 13:17N 38°41' W 009°25'0 0.0
2018-Apr-13 12:58N 38°41' W 009°25'  
Track history (hours):
 
Tides and Currents Weather Stations Pressure Air Temp Water Temp Dewpoint Dewpoint Depression Visibility Wind Speed Wind Dir Waves Ship Positions

Jiyu

Last reported at 2018-Apr-19 03:34 UTC. Time now 2018-Apr-21 02:18 UTC.
Position N 38°55' E 001°27'.

Length 8 m.

Type: Sailing vessel. MMSI: 227371690.

Date/timePositionNaut miles runAvg speedWind from/ knotsBaromVisibWave heightAir tempDewpointWater temp
2018-Apr-19 03:34N 38°55' E 001°27'0 0.4
2018-Apr-19 03:11N 38°55' E 001°27'1 6.0
2018-Apr-19 02:58N 38°54' E 001°27'  
2018-Apr-13 19:25N 37°59' W 009°26'30 8.6
2018-Apr-13 15:56N 38°29' W 009°23'4 9.1
2018-Apr-13 15:30N 38°33' W 009°23'7 8.5
2018-Apr-13 14:43N 38°40' W 009°24'1 2.8
2018-Apr-13 14:25N 38°41' W 009°25'1 0.7
2018-Apr-13 13:17N 38°41' W 009°25'0 0.0
2018-Apr-13 12:58N 38°41' W 009°25'  

Dump ship's entire track history